Terminal Aerodrome Forecast
Issued by NWS Upton, NY

Home | Current Version | Previous Version | Text Only | Print | Product List | Glossary On
Versions: 1 2 3 4 5 6 7 8 9 10 11 12 13 14 15 16 17 18 19 20 21 22 23 24 25 26 27 28 29
000
FTUS41 KOKX 271420 AAC
TAFISP
TAF AMD
KISP 271420Z 2714/2812 21011KT P6SM BKN008 BKN040
     FM271600 19012G18KT P6SM SCT012 BKN040
      TEMPO 2716/2717 BKN012
     FM271800 19016G21KT P6SM SCT020 BKN040
     FM280100 20011KT 6SM BR SCT010 BKN040
     FM280700 19007KT 5SM BR BKN008=

USA.gov is the U.S. government's official web portal to all federal, state and local government web resources and services.